sensor_id;sensor_type;location;lat;lon;timestamp;temperature;humidity
38938;DHT22;24727;51.974;20.868;2023-04-03T00:00:59;2.50;1.00
38938;DHT22;24727;51.974;20.868;2023-04-03T00:03:25;2.50;1.00
38938;DHT22;24727;51.974;20.868;2023-04-03T00:05:51;2.40;1.00
38938;DHT22;24727;51.974;20.868;2023-04-03T00:08:19;2.20;1.00
38938;DHT22;24727;51.974;20.868;2023-04-03T00:10:46;2.20;1.00
38938;DHT22;24727;51.974;20.868;2023-04-03T00:13:12;2.30;1.00
38938;DHT22;24727;51.974;20.868;2023-04-03T00:15:39;2.30;1.00
38938;DHT22;24727;51.974;20.868;2023-04-03T00:18:07;2.10;1.00
38938;DHT22;24727;51.974;20.868;2023-04-03T00:20:34;1.90;1.00
38938;DHT22;24727;51.974;20.868;2023-04-03T00:23:01;2.30;1.00
38938;DHT22;24727;51.974;20.868;2023-04-03T00:25:29;2.20;1.00
38938;DHT22;24727;51.974;20.868;2023-04-03T00:27:55;2.00;1.00
38938;DHT22;24727;51.974;20.868;2023-04-03T00:30:22;2.30;1.00
38938;DHT22;24727;51.974;20.868;2023-04-03T00:32:49;1.90;1.00
38938;DHT22;24727;51.974;20.868;2023-04-03T00:35:17;1.80;1.00
38938;DHT22;24727;51.974;20.868;2023-04-03T00:37:44;1.90;1.00
38938;DHT22;24727;51.974;20.868;2023-04-03T00:40:13;2.00;1.00
38938;DHT22;24727;51.974;20.868;2023-04-03T00:42:41;1.90;1.00
38938;DHT22;24727;51.974;20.868;2023-04-03T00:45:25;2.00;1.00
38938;DHT22;24727;51.974;20.868;2023-04-03T00:47:52;2.10;1.00
38938;DHT22;24727;51.974;20.868;2023-04-03T00:50:19;2.10;1.00
38938;DHT22;24727;51.974;20.868;2023-04-03T00:52:47;1.80;1.00
38938;DHT22;24727;51.974;20.868;2023-04-03T00:55:15;1.70;1.00
38938;DHT22;24727;51.974;20.868;2023-04-03T00:57:43;1.60;1.00
38938;DHT22;24727;51.974;20.868;2023-04-03T01:00:14;1.60;1.00
38938;DHT22;24727;51.974;20.868;2023-04-03T01:02:41;1.60;1.00
38938;DHT22;24727;51.974;20.868;2023-04-03T01:05:08;1.60;1.00
38938;DHT22;24727;51.974;20.868;2023-04-03T01:07:35;1.40;1.00
38938;DHT22;24727;51.974;20.868;2023-04-03T01:10:07;1.60;1.00
38938;DHT22;24727;51.974;20.868;2023-04-03T01:12:38;1.70;1.00
38938;DHT22;24727;51.974;20.868;2023-04-03T01:15:20;1.80;1.00
38938;DHT22;24727;51.974;20.868;2023-04-03T01:17:47;1.60;1.00
38938;DHT22;24727;51.974;20.868;2023-04-03T01:20:46;1.60;1.00
38938;DHT22;24727;51.974;20.868;2023-04-03T01:23:30;1.40;1.00
38938;DHT22;24727;51.974;20.868;2023-04-03T01:26:01;1.20;1.00
38938;DHT22;24727;51.974;20.868;2023-04-03T01:28:32;1.10;1.00
38938;DHT22;24727;51.974;20.868;2023-04-03T01:31:27;1.10;1.00
38938;DHT22;24727;51.974;20.868;2023-04-03T01:33:54;1.00;1.00
38938;DHT22;24727;51.974;20.868;2023-04-03T01:36:26;1.10;1.00
38938;DHT22;24727;51.974;20.868;2023-04-03T01:39:02;1.10;1.00
38938;DHT22;24727;51.974;20.868;2023-04-03T01:41:29;0.90;1.00
38938;DHT22;24727;51.974;20.868;2023-04-03T01:43:56;0.80;1.00
38938;DHT22;24727;51.974;20.868;2023-04-03T01:46:22;0.70;1.00
38938;DHT22;24727;51.974;20.868;2023-04-03T01:48:54;0.70;1.00
38938;DHT22;24727;51.974;20.868;2023-04-03T01:51:21;0.70;1.00
38938;DHT22;24727;51.974;20.868;2023-04-03T01:53:47;0.60;1.00
38938;DHT22;24727;51.974;20.868;2023-04-03T01:56:13;1.20;1.00
38938;DHT22;24727;51.974;20.868;2023-04-03T01:58:41;0.80;1.00
38938;DHT22;24727;51.974;20.868;2023-04-03T02:01:07;0.70;1.00
38938;DHT22;24727;51.974;20.868;2023-04-03T02:03:32;0.60;1.00
38938;DHT22;24727;51.974;20.868;2023-04-03T02:05:59;0.50;1.00
38938;DHT22;24727;51.974;20.868;2023-04-03T02:08:25;0.40;1.00
38938;DHT22;24727;51.974;20.868;2023-04-03T02:10:51;0.60;1.00
38938;DHT22;24727;51.974;20.868;2023-04-03T02:13:18;0.50;1.00
38938;DHT22;24727;51.974;20.868;2023-04-03T02:15:46;0.50;1.00
38938;DHT22;24727;51.974;20.868;2023-04-03T02:18:12;0.50;1.00
38938;DHT22;24727;51.974;20.868;2023-04-03T02:20:38;0.40;1.00
38938;DHT22;24727;51.974;20.868;2023-04-03T02:23:04;0.40;1.00
38938;DHT22;24727;51.974;20.868;2023-04-03T02:25:32;0.40;1.00
38938;DHT22;24727;51.974;20.868;2023-04-03T02:27:58;0.40;1.00
38938;DHT22;24727;51.974;20.868;2023-04-03T02:30:25;0.40;1.00
38938;DHT22;24727;51.974;20.868;2023-04-03T02:32:52;0.30;1.00
38938;DHT22;24727;51.974;20.868;2023-04-03T02:35:18;0.50;1.00
38938;DHT22;24727;51.974;20.868;2023-04-03T02:37:45;0.30;1.00
38938;DHT22;24727;51.974;20.868;2023-04-03T02:40:12;0.20;1.00
38938;DHT22;24727;51.974;20.868;2023-04-03T02:42:39;0.10;1.00
38938;DHT22;24727;51.974;20.868;2023-04-03T02:45:07;0.20;1.00
38938;DHT22;24727;51.974;20.868;2023-04-03T02:47:33;0.00;1.00
38938;DHT22;24727;51.974;20.868;2023-04-03T02:49:59;0.00;1.00
38938;DHT22;24727;51.974;20.868;2023-04-03T02:52:25;0.00;1.00
38938;DHT22;24727;51.974;20.868;2023-04-03T02:54:51;0.00;1.00
38938;DHT22;24727;51.974;20.868;2023-04-03T02:57:17;0.00;1.00
38938;DHT22;24727;51.974;20.868;2023-04-03T02:59:43;-0.10;1.00
38938;DHT22;24727;51.974;20.868;2023-04-03T03:02:10;-0.20;1.00
38938;DHT22;24727;51.974;20.868;2023-04-03T03:04:36;-0.30;1.00
38938;DHT22;24727;51.974;20.868;2023-04-03T03:07:03;-0.30;1.00
38938;DHT22;24727;51.974;20.868;2023-04-03T03:09:29;-0.30;1.00
38938;DHT22;24727;51.974;20.868;2023-04-03T03:11:56;-0.20;1.00
38938;DHT22;24727;51.974;20.868;2023-04-03T03:14:23;-0.30;1.00
38938;DHT22;24727;51.974;20.868;2023-04-03T03:16:51;-0.40;1.00
38938;DHT22;24727;51.974;20.868;2023-04-03T03:19:17;-0.40;1.00
38938;DHT22;24727;51.974;20.868;2023-04-03T03:21:43;-0.30;1.00
38938;DHT22;24727;51.974;20.868;2023-04-03T03:24:09;-0.30;1.00
38938;DHT22;24727;51.974;20.868;2023-04-03T03:26:36;-0.40;1.00
38938;DHT22;24727;51.974;20.868;2023-04-03T03:29:02;-0.50;1.00
38938;DHT22;24727;51.974;20.868;2023-04-03T03:31:28;-0.50;1.00
38938;DHT22;24727;51.974;20.868;2023-04-03T03:33:54;-0.30;1.00
38938;DHT22;24727;51.974;20.868;2023-04-03T03:36:20;-0.40;1.00
38938;DHT22;24727;51.974;20.868;2023-04-03T03:38:47;-0.50;1.00
38938;DHT22;24727;51.974;20.868;2023-04-03T03:41:13;-0.50;1.00
38938;DHT22;24727;51.974;20.868;2023-04-03T03:43:39;-0.40;1.00
38938;DHT22;24727;51.974;20.868;2023-04-03T03:46:06;-0.40;1.00
38938;DHT22;24727;51.974;20.868;2023-04-03T03:48:32;-0.40;1.00
38938;DHT22;24727;51.974;20.868;2023-04-03T03:50:59;-0.40;1.00
38938;DHT22;24727;51.974;20.868;2023-04-03T03:53:31;-0.50;1.00
38938;DHT22;24727;51.974;20.868;2023-04-03T03:55:57;-0.60;1.00
38938;DHT22;24727;51.974;20.868;2023-04-03T03:58:23;-0.70;1.00
38938;DHT22;24727;51.974;20.868;2023-04-03T04:00:49;-0.70;1.00
38938;DHT22;24727;51.974;20.868;2023-04-03T04:03:15;-0.60;1.00
38938;DHT22;24727;51.974;20.868;2023-04-03T04:05:41;-0.80;1.00
38938;DHT22;24727;51.974;20.868;2023-04-03T04:08:07;-0.80;1.00
38938;DHT22;24727;51.974;20.868;2023-04-03T04:10:35;-0.80;1.00
38938;DHT22;24727;51.974;20.868;2023-04-03T04:13:03;-0.80;1.00
38938;DHT22;24727;51.974;20.868;2023-04-03T04:15:28;-0.80;1.00
38938;DHT22;24727;51.974;20.868;2023-04-03T04:17:55;-0.80;1.00
38938;DHT22;24727;51.974;20.868;2023-04-03T04:20:21;-0.80;1.00
38938;DHT22;24727;51.974;20.868;2023-04-03T04:22:47;-0.80;1.00
38938;DHT22;24727;51.974;20.868;2023-04-03T04:25:13;-0.60;1.00
38938;DHT22;24727;51.974;20.868;2023-04-03T04:27:40;-0.80;1.00
38938;DHT22;24727;51.974;20.868;2023-04-03T04:30:07;-0.80;1.00
38938;DHT22;24727;51.974;20.868;2023-04-03T04:32:34;-0.90;1.00
38938;DHT22;24727;51.974;20.868;2023-04-03T04:35:00;-1.00;1.00
38938;DHT22;24727;51.974;20.868;2023-04-03T04:37:26;-1.00;1.00
38938;DHT22;24727;51.974;20.868;2023-04-03T04:39:52;-0.90;1.00
38938;DHT22;24727;51.974;20.868;2023-04-03T04:42:18;-1.00;1.00
38938;DHT22;24727;51.974;20.868;2023-04-03T04:44:46;-1.00;1.00
38938;DHT22;24727;51.974;20.868;2023-04-03T04:47:13;-0.80;1.00
38938;DHT22;24727;51.974;20.868;2023-04-03T04:49:40;-0.90;1.00
38938;DHT22;24727;51.974;20.868;2023-04-03T04:52:06;-0.70;1.00
38938;DHT22;24727;51.974;20.868;2023-04-03T04:54:32;-0.80;1.00
38938;DHT22;24727;51.974;20.868;2023-04-03T04:56:58;-0.90;1.00
38938;DHT22;24727;51.974;20.868;2023-04-03T04:59:25;-0.80;1.00
38938;DHT22;24727;51.974;20.868;2023-04-03T05:01:51;-1.00;1.00
38938;DHT22;24727;51.974;20.868;2023-04-03T05:04:17;-0.80;1.00
38938;DHT22;24727;51.974;20.868;2023-04-03T05:06:49;-0.80;1.00
38938;DHT22;24727;51.974;20.868;2023-04-03T05:09:16;-0.90;1.00
38938;DHT22;24727;51.974;20.868;2023-04-03T05:11:42;-0.80;1.00
38938;DHT22;24727;51.974;20.868;2023-04-03T05:14:09;-0.90;1.00
38938;DHT22;24727;51.974;20.868;2023-04-03T05:16:34;-1.00;1.00
38938;DHT22;24727;51.974;20.868;2023-04-03T05:19:01;-1.00;1.00
38938;DHT22;24727;51.974;20.868;2023-04-03T05:21:27;-0.90;1.00
38938;DHT22;24727;51.974;20.868;2023-04-03T05:23:59;-1.00;1.00
38938;DHT22;24727;51.974;20.868;2023-04-03T05:26:31;-1.00;1.00
38938;DHT22;24727;51.974;20.868;2023-04-03T05:29:03;-1.10;1.00
38938;DHT22;24727;51.974;20.868;2023-04-03T05:31:30;-0.90;1.00
38938;DHT22;24727;51.974;20.868;2023-04-03T05:33:57;-0.60;1.00
38938;DHT22;24727;51.974;20.868;2023-04-03T05:36:23;-0.80;1.00
38938;DHT22;24727;51.974;20.868;2023-04-03T05:38:49;-0.80;1.00
38938;DHT22;24727;51.974;20.868;2023-04-03T05:41:15;-0.70;1.00
38938;DHT22;24727;51.974;20.868;2023-04-03T05:43:42;-0.70;1.00
38938;DHT22;24727;51.974;20.868;2023-04-03T05:46:14;-0.50;1.00
38938;DHT22;24727;51.974;20.868;2023-04-03T05:48:41;-0.50;1.00
38938;DHT22;24727;51.974;20.868;2023-04-03T05:51:17;-0.50;1.00
38938;DHT22;24727;51.974;20.868;2023-04-03T05:53:45;-0.40;1.00
38938;DHT22;24727;51.974;20.868;2023-04-03T05:56:13;-0.10;1.00
38938;DHT22;24727;51.974;20.868;2023-04-03T05:58:40;0.00;1.00
38938;DHT22;24727;51.974;20.868;2023-04-03T06:01:07;0.20;1.00
38938;DHT22;24727;51.974;20.868;2023-04-03T06:03:33;0.20;1.00
38938;DHT22;24727;51.974;20.868;2023-04-03T06:06:00;0.00;1.00
38938;DHT22;24727;51.974;20.868;2023-04-03T06:08:27;0.10;1.00
38938;DHT22;24727;51.974;20.868;2023-04-03T06:10:53;0.10;1.00
38938;DHT22;24727;51.974;20.868;2023-04-03T06:13:21;0.30;1.00
38938;DHT22;24727;51.974;20.868;2023-04-03T06:15:47;0.70;1.00
38938;DHT22;24727;51.974;20.868;2023-04-03T06:18:14;0.40;1.00
38938;DHT22;24727;51.974;20.868;2023-04-03T06:20:41;0.80;1.00
38938;DHT22;24727;51.974;20.868;2023-04-03T06:23:07;1.00;1.00
38938;DHT22;24727;51.974;20.868;2023-04-03T06:25:32;0.80;1.00
38938;DHT22;24727;51.974;20.868;2023-04-03T06:28:00;0.80;1.00
38938;DHT22;24727;51.974;20.868;2023-04-03T06:30:28;0.90;1.00
38938;DHT22;24727;51.974;20.868;2023-04-03T06:32:55;1.10;1.00
38938;DHT22;24727;51.974;20.868;2023-04-03T06:35:23;0.80;1.00
38938;DHT22;24727;51.974;20.868;2023-04-03T06:37:50;0.70;1.00
38938;DHT22;24727;51.974;20.868;2023-04-03T06:40:22;0.90;1.00
38938;DHT22;24727;51.974;20.868;2023-04-03T06:42:48;1.10;1.00
38938;DHT22;24727;51.974;20.868;2023-04-03T06:45:15;1.40;1.00
38938;DHT22;24727;51.974;20.868;2023-04-03T06:47:43;1.50;1.00
38938;DHT22;24727;51.974;20.868;2023-04-03T06:50:11;1.80;1.00
38938;DHT22;24727;51.974;20.868;2023-04-03T06:52:40;1.90;1.00
38938;DHT22;24727;51.974;20.868;2023-04-03T06:55:06;1.80;1.00
38938;DHT22;24727;51.974;20.868;2023-04-03T06:57:33;1.80;1.00
38938;DHT22;24727;51.974;20.868;2023-04-03T07:00:00;1.90;1.00
38938;DHT22;24727;51.974;20.868;2023-04-03T07:02:26;1.80;1.00
38938;DHT22;24727;51.974;20.868;2023-04-03T07:04:52;1.50;1.00
38938;DHT22;24727;51.974;20.868;2023-04-03T07:07:18;1.10;1.00
38938;DHT22;24727;51.974;20.868;2023-04-03T07:09:46;1.40;1.00
38938;DHT22;24727;51.974;20.868;2023-04-03T07:12:13;1.90;1.00
38938;DHT22;24727;51.974;20.868;2023-04-03T07:14:40;2.00;1.00
38938;DHT22;24727;51.974;20.868;2023-04-03T07:17:05;2.30;1.00
38938;DHT22;24727;51.974;20.868;2023-04-03T07:19:32;2.50;1.00
38938;DHT22;24727;51.974;20.868;2023-04-03T07:21:58;2.50;1.00
38938;DHT22;24727;51.974;20.868;2023-04-03T07:24:31;2.80;1.00
38938;DHT22;24727;51.974;20.868;2023-04-03T07:26:57;3.00;1.00
38938;DHT22;24727;51.974;20.868;2023-04-03T07:29:23;2.90;1.00
38938;DHT22;24727;51.974;20.868;2023-04-03T07:31:49;2.70;1.00
38938;DHT22;24727;51.974;20.868;2023-04-03T07:34:15;2.90;1.00
38938;DHT22;24727;51.974;20.868;2023-04-03T07:36:42;2.50;1.00
38938;DHT22;24727;51.974;20.868;2023-04-03T07:39:08;2.90;1.00
38938;DHT22;24727;51.974;20.868;2023-04-03T07:41:35;3.10;1.00
38938;DHT22;24727;51.974;20.868;2023-04-03T07:44:01;2.80;1.00
38938;DHT22;24727;51.974;20.868;2023-04-03T07:46:28;3.00;1.00
38938;DHT22;24727;51.974;20.868;2023-04-03T07:48:54;3.00;1.00
38938;DHT22;24727;51.974;20.868;2023-04-03T07:51:21;3.00;1.00
38938;DHT22;24727;51.974;20.868;2023-04-03T07:53:46;3.30;1.00
38938;DHT22;24727;51.974;20.868;2023-04-03T07:56:14;3.70;1.00
38938;DHT22;24727;51.974;20.868;2023-04-03T07:58:40;3.80;1.00
38938;DHT22;24727;51.974;20.868;2023-04-03T08:01:07;3.90;1.00
38938;DHT22;24727;51.974;20.868;2023-04-03T08:03:33;3.90;1.00
38938;DHT22;24727;51.974;20.868;2023-04-03T08:06:04;4.10;1.00
38938;DHT22;24727;51.974;20.868;2023-04-03T08:08:30;4.30;1.00
38938;DHT22;24727;51.974;20.868;2023-04-03T08:10:59;4.40;1.00
38938;DHT22;24727;51.974;20.868;2023-04-03T08:13:26;4.40;1.00
38938;DHT22;24727;51.974;20.868;2023-04-03T08:15:52;4.40;1.00
38938;DHT22;24727;51.974;20.868;2023-04-03T08:18:18;4.10;1.00
38938;DHT22;24727;51.974;20.868;2023-04-03T08:20:47;3.70;1.00
38938;DHT22;24727;51.974;20.868;2023-04-03T08:23:14;2.90;1.00
38938;DHT22;24727;51.974;20.868;2023-04-03T08:25:41;2.90;1.00
38938;DHT22;24727;51.974;20.868;2023-04-03T08:28:09;2.80;1.00
38938;DHT22;24727;51.974;20.868;2023-04-03T08:30:41;3.40;1.00
38938;DHT22;24727;51.974;20.868;2023-04-03T08:33:08;3.50;1.00
38938;DHT22;24727;51.974;20.868;2023-04-03T08:35:39;3.50;1.00
38938;DHT22;24727;51.974;20.868;2023-04-03T08:38:06;3.80;1.00
38938;DHT22;24727;51.974;20.868;2023-04-03T08:40:32;3.50;1.00
38938;DHT22;24727;51.974;20.868;2023-04-03T08:46:14;3.90;1.00
38938;DHT22;24727;51.974;20.868;2023-04-03T08:48:42;3.90;1.00
38938;DHT22;24727;51.974;20.868;2023-04-03T08:51:17;4.00;1.00
38938;DHT22;24727;51.974;20.868;2023-04-03T08:53:55;3.90;1.00
38938;DHT22;24727;51.974;20.868;2023-04-03T08:56:24;3.90;1.00
38938;DHT22;24727;51.974;20.868;2023-04-03T08:58:56;4.00;1.00
38938;DHT22;24727;51.974;20.868;2023-04-03T09:01:37;3.90;1.00
38938;DHT22;24727;51.974;20.868;2023-04-03T09:04:13;3.50;1.00
38938;DHT22;24727;51.974;20.868;2023-04-03T09:06:42;3.50;1.00
38938;DHT22;24727;51.974;20.868;2023-04-03T09:12:25;3.80;1.00
38938;DHT22;24727;51.974;20.868;2023-04-03T09:15:20;3.90;1.00
38938;DHT22;24727;51.974;20.868;2023-04-03T09:18:28;4.40;1.00
38938;DHT22;24727;51.974;20.868;2023-04-03T09:23:50;4.50;1.00
38938;DHT22;24727;51.974;20.868;2023-04-03T09:26:24;4.30;1.00
38938;DHT22;24727;51.974;20.868;2023-04-03T09:28:54;4.40;1.00
38938;DHT22;24727;51.974;20.868;2023-04-03T09:31:27;4.80;1.00
38938;DHT22;24727;51.974;20.868;2023-04-03T09:33:59;4.80;1.00
38938;DHT22;24727;51.974;20.868;2023-04-03T09:36:43;4.90;1.00
38938;DHT22;24727;51.974;20.868;2023-04-03T09:41:56;4.50;1.00
38938;DHT22;24727;51.974;20.868;2023-04-03T09:44:25;4.70;1.00
38938;DHT22;24727;51.974;20.868;2023-04-03T09:46:52;5.10;1.00
38938;DHT22;24727;51.974;20.868;2023-04-03T09:49:19;5.40;1.00
38938;DHT22;24727;51.974;20.868;2023-04-03T09:51:45;4.70;1.00
38938;DHT22;24727;51.974;20.868;2023-04-03T09:54:33;5.10;1.00
38938;DHT22;24727;51.974;20.868;2023-04-03T09:57:07;5.40;1.00
38938;DHT22;24727;51.974;20.868;2023-04-03T09:59:34;4.80;1.00
38938;DHT22;24727;51.974;20.868;2023-04-03T10:02:04;4.90;1.00
38938;DHT22;24727;51.974;20.868;2023-04-03T10:04:42;5.40;1.00
38938;DHT22;24727;51.974;20.868;2023-04-03T10:07:28;5.60;1.00
38938;DHT22;24727;51.974;20.868;2023-04-03T10:09:58;5.40;1.00
38938;DHT22;24727;51.974;20.868;2023-04-03T10:12:25;5.90;1.00
38938;DHT22;24727;51.974;20.868;2023-04-03T10:14:57;6.20;1.00
38938;DHT22;24727;51.974;20.868;2023-04-03T10:17:32;5.80;1.00
38938;DHT22;24727;51.974;20.868;2023-04-03T10:22:55;4.10;1.00
38938;DHT22;24727;51.974;20.868;2023-04-03T10:25:39;3.90;1.00
38938;DHT22;24727;51.974;20.868;2023-04-03T10:28:25;4.70;1.00
38938;DHT22;24727;51.974;20.868;2023-04-03T10:30:56;4.60;1.00
38938;DHT22;24727;51.974;20.868;2023-04-03T10:36:27;6.00;1.00
38938;DHT22;24727;51.974;20.868;2023-04-03T10:41:39;5.10;1.00
38938;DHT22;24727;51.974;20.868;2023-04-03T10:44:36;4.90;1.00
38938;DHT22;24727;51.974;20.868;2023-04-03T10:47:41;4.70;1.00
38938;DHT22;24727;51.974;20.868;2023-04-03T10:53:39;3.90;1.00
38938;DHT22;24727;51.974;20.868;2023-04-03T11:02:13;3.70;1.00
38938;DHT22;24727;51.974;20.868;2023-04-03T11:04:45;4.20;1.00
38938;DHT22;24727;51.974;20.868;2023-04-03T11:07:15;5.10;1.00
38938;DHT22;24727;51.974;20.868;2023-04-03T11:09:45;5.70;1.00
38938;DHT22;24727;51.974;20.868;2023-04-03T11:15:03;5.00;1.00
38938;DHT22;24727;51.974;20.868;2023-04-03T11:17:37;5.10;1.00
38938;DHT22;24727;51.974;20.868;2023-04-03T11:20:18;5.00;1.00
38938;DHT22;24727;51.974;20.868;2023-04-03T11:23:18;5.70;1.00
38938;DHT22;24727;51.974;20.868;2023-04-03T11:25:41;5.80;1.00
38938;DHT22;24727;51.974;20.868;2023-04-03T11:28:13;4.90;1.00
38938;DHT22;24727;51.974;20.868;2023-04-03T11:35:59;6.00;1.00
38938;DHT22;24727;51.974;20.868;2023-04-03T11:38:37;5.60;1.00
38938;DHT22;24727;51.974;20.868;2023-04-03T11:41:07;6.00;1.00
38938;DHT22;24727;51.974;20.868;2023-04-03T11:43:48;6.50;1.00
38938;DHT22;24727;51.974;20.868;2023-04-03T11:46:22;7.00;1.00
38938;DHT22;24727;51.974;20.868;2023-04-03T11:48:50;7.20;1.00
38938;DHT22;24727;51.974;20.868;2023-04-03T11:53:54;6.70;1.00
38938;DHT22;24727;51.974;20.868;2023-04-03T11:56:40;7.10;1.00
38938;DHT22;24727;51.974;20.868;2023-04-03T12:01:49;7.30;1.00
38938;DHT22;24727;51.974;20.868;2023-04-03T12:04:16;6.70;1.00
38938;DHT22;24727;51.974;20.868;2023-04-03T12:12:34;6.50;1.00
38938;DHT22;24727;51.974;20.868;2023-04-03T12:18:31;6.40;1.00
38938;DHT22;24727;51.974;20.868;2023-04-03T12:21:07;6.80;1.00
38938;DHT22;24727;51.974;20.868;2023-04-03T12:23:36;7.50;1.00
38938;DHT22;24727;51.974;20.868;2023-04-03T12:29:10;6.60;1.00
38938;DHT22;24727;51.974;20.868;2023-04-03T12:32:12;6.60;1.00
38938;DHT22;24727;51.974;20.868;2023-04-03T12:46:11;7.30;1.00
38938;DHT22;24727;51.974;20.868;2023-04-03T12:48:55;6.50;1.00
38938;DHT22;24727;51.974;20.868;2023-04-03T12:51:34;6.30;1.00
38938;DHT22;24727;51.974;20.868;2023-04-03T12:56:45;6.60;1.00
38938;DHT22;24727;51.974;20.868;2023-04-03T12:59:26;5.60;1.00
38938;DHT22;24727;51.974;20.868;2023-04-03T13:02:01;5.60;1.00
38938;DHT22;24727;51.974;20.868;2023-04-03T13:04:29;5.40;1.00
38938;DHT22;24727;51.974;20.868;2023-04-03T13:06:56;4.70;1.00
38938;DHT22;24727;51.974;20.868;2023-04-03T13:09:28;4.90;1.00
38938;DHT22;24727;51.974;20.868;2023-04-03T13:12:02;5.30;1.00
38938;DHT22;24727;51.974;20.868;2023-04-03T13:14:29;6.20;1.00
38938;DHT22;24727;51.974;20.868;2023-04-03T13:17:15;6.20;1.00
38938;DHT22;24727;51.974;20.868;2023-04-03T13:19:43;5.60;1.00
38938;DHT22;24727;51.974;20.868;2023-04-03T13:24:54;5.30;1.00
38938;DHT22;24727;51.974;20.868;2023-04-03T13:27:21;5.90;1.00
38938;DHT22;24727;51.974;20.868;2023-04-03T13:29:52;6.20;1.00
38938;DHT22;24727;51.974;20.868;2023-04-03T13:32:25;6.20;1.00
38938;DHT22;24727;51.974;20.868;2023-04-03T13:34:53;6.80;1.00
38938;DHT22;24727;51.974;20.868;2023-04-03T13:37:29;7.00;1.00
38938;DHT22;24727;51.974;20.868;2023-04-03T13:42:38;7.00;1.00
38938;DHT22;24727;51.974;20.868;2023-04-03T13:47:51;7.10;1.00
38938;DHT22;24727;51.974;20.868;2023-04-03T13:50:22;7.20;1.00
38938;DHT22;24727;51.974;20.868;2023-04-03T13:53:14;7.60;1.00
38938;DHT22;24727;51.974;20.868;2023-04-03T13:58:27;9.70;1.00
38938;DHT22;24727;51.974;20.868;2023-04-03T14:03:46;8.60;1.00
38938;DHT22;24727;51.974;20.868;2023-04-03T14:06:16;8.00;1.00
38938;DHT22;24727;51.974;20.868;2023-04-03T14:08:44;7.50;1.00
38938;DHT22;24727;51.974;20.868;2023-04-03T14:11:37;6.90;1.00
38938;DHT22;24727;51.974;20.868;2023-04-03T14:14:14;7.20;1.00
38938;DHT22;24727;51.974;20.868;2023-04-03T14:16:43;6.80;1.00
38938;DHT22;24727;51.974;20.868;2023-04-03T14:19:22;6.80;1.00
38938;DHT22;24727;51.974;20.868;2023-04-03T14:21:51;6.40;1.00
38938;DHT22;24727;51.974;20.868;2023-04-03T14:24:20;6.50;1.00
38938;DHT22;24727;51.974;20.868;2023-04-03T14:26:48;7.00;1.00
38938;DHT22;24727;51.974;20.868;2023-04-03T14:29:16;6.90;1.00
38938;DHT22;24727;51.974;20.868;2023-04-03T14:31:44;6.70;1.00
38938;DHT22;24727;51.974;20.868;2023-04-03T14:34:12;6.00;1.00
38938;DHT22;24727;51.974;20.868;2023-04-03T14:36:40;5.70;1.00
38938;DHT22;24727;51.974;20.868;2023-04-03T14:39:10;5.30;1.00
38938;DHT22;24727;51.974;20.868;2023-04-03T14:41:37;5.30;1.00
38938;DHT22;24727;51.974;20.868;2023-04-03T14:44:04;5.90;1.00
38938;DHT22;24727;51.974;20.868;2023-04-03T14:46:36;5.90;1.00
38938;DHT22;24727;51.974;20.868;2023-04-03T14:49:14;5.60;1.00
38938;DHT22;24727;51.974;20.868;2023-04-03T14:51:40;5.90;1.00
38938;DHT22;24727;51.974;20.868;2023-04-03T14:54:13;6.10;1.00
38938;DHT22;24727;51.974;20.868;2023-04-03T14:56:39;5.90;1.00
38938;DHT22;24727;51.974;20.868;2023-04-03T14:59:10;5.50;1.00
38938;DHT22;24727;51.974;20.868;2023-04-03T15:01:38;6.00;1.00
38938;DHT22;24727;51.974;20.868;2023-04-03T15:04:18;5.60;1.00
38938;DHT22;24727;51.974;20.868;2023-04-03T15:06:47;5.60;1.00
38938;DHT22;24727;51.974;20.868;2023-04-03T15:09:21;5.90;1.00
38938;DHT22;24727;51.974;20.868;2023-04-03T15:11:50;5.80;1.00
38938;DHT22;24727;51.974;20.868;2023-04-03T15:14:16;5.70;1.00
38938;DHT22;24727;51.974;20.868;2023-04-03T15:16:44;6.10;1.00
38938;DHT22;24727;51.974;20.868;2023-04-03T15:19:11;6.20;1.00
38938;DHT22;24727;51.974;20.868;2023-04-03T15:21:38;6.10;1.00
38938;DHT22;24727;51.974;20.868;2023-04-03T15:24:05;5.90;1.00
38938;DHT22;24727;51.974;20.868;2023-04-03T15:26:31;5.60;1.00
38938;DHT22;24727;51.974;20.868;2023-04-03T15:28:58;5.30;1.00
38938;DHT22;24727;51.974;20.868;2023-04-03T15:31:27;5.70;1.00
38938;DHT22;24727;51.974;20.868;2023-04-03T15:33:53;5.80;1.00
38938;DHT22;24727;51.974;20.868;2023-04-03T15:36:19;5.90;1.00
38938;DHT22;24727;51.974;20.868;2023-04-03T15:38:51;5.60;1.00
38938;DHT22;24727;51.974;20.868;2023-04-03T15:41:18;5.80;1.00
38938;DHT22;24727;51.974;20.868;2023-04-03T15:43:45;5.70;1.00
38938;DHT22;24727;51.974;20.868;2023-04-03T15:46:13;5.30;1.00
38938;DHT22;24727;51.974;20.868;2023-04-03T15:48:39;5.20;1.00
38938;DHT22;24727;51.974;20.868;2023-04-03T15:51:06;5.60;1.00
38938;DHT22;24727;51.974;20.868;2023-04-03T15:53:32;5.60;1.00
38938;DHT22;24727;51.974;20.868;2023-04-03T15:55:58;4.90;1.00
38938;DHT22;24727;51.974;20.868;2023-04-03T15:58:25;5.00;1.00
38938;DHT22;24727;51.974;20.868;2023-04-03T16:00:51;4.80;1.00
38938;DHT22;24727;51.974;20.868;2023-04-03T16:03:18;4.80;1.00
38938;DHT22;24727;51.974;20.868;2023-04-03T16:05:45;4.90;1.00
38938;DHT22;24727;51.974;20.868;2023-04-03T16:08:12;5.30;1.00
38938;DHT22;24727;51.974;20.868;2023-04-03T16:10:39;5.40;1.00
38938;DHT22;24727;51.974;20.868;2023-04-03T16:13:06;5.40;1.00
38938;DHT22;24727;51.974;20.868;2023-04-03T16:15:35;4.80;1.00
38938;DHT22;24727;51.974;20.868;2023-04-03T16:18:01;4.80;1.00
38938;DHT22;24727;51.974;20.868;2023-04-03T16:20:28;4.70;1.00
38938;DHT22;24727;51.974;20.868;2023-04-03T16:22:57;4.70;1.00
38938;DHT22;24727;51.974;20.868;2023-04-03T16:25:24;4.60;1.00
38938;DHT22;24727;51.974;20.868;2023-04-03T16:27:50;4.80;1.00
38938;DHT22;24727;51.974;20.868;2023-04-03T16:30:18;4.70;1.00
38938;DHT22;24727;51.974;20.868;2023-04-03T16:32:45;4.80;1.00
38938;DHT22;24727;51.974;20.868;2023-04-03T16:35:11;5.00;1.00
38938;DHT22;24727;51.974;20.868;2023-04-03T16:37:38;5.10;1.00
38938;DHT22;24727;51.974;20.868;2023-04-03T16:40:07;5.20;1.00
38938;DHT22;24727;51.974;20.868;2023-04-03T16:42:35;5.10;1.00
38938;DHT22;24727;51.974;20.868;2023-04-03T16:45:01;5.00;1.00
38938;DHT22;24727;51.974;20.868;2023-04-03T16:47:30;5.30;1.00
38938;DHT22;24727;51.974;20.868;2023-04-03T16:49:56;5.10;1.00
38938;DHT22;24727;51.974;20.868;2023-04-03T16:52:23;4.80;1.00
38938;DHT22;24727;51.974;20.868;2023-04-03T16:54:50;4.90;1.00
38938;DHT22;24727;51.974;20.868;2023-04-03T16:57:22;5.00;1.00
38938;DHT22;24727;51.974;20.868;2023-04-03T16:59:52;5.10;1.00
38938;DHT22;24727;51.974;20.868;2023-04-03T17:02:21;5.20;1.00
38938;DHT22;24727;51.974;20.868;2023-04-03T17:04:52;5.30;1.00
38938;DHT22;24727;51.974;20.868;2023-04-03T17:07:23;5.40;1.00
38938;DHT22;24727;51.974;20.868;2023-04-03T17:09:50;5.00;1.00
38938;DHT22;24727;51.974;20.868;2023-04-03T17:12:19;5.00;1.00
38938;DHT22;24727;51.974;20.868;2023-04-03T17:14:47;5.00;1.00
38938;DHT22;24727;51.974;20.868;2023-04-03T17:17:14;5.20;1.00
38938;DHT22;24727;51.974;20.868;2023-04-03T17:19:46;4.90;1.00